Time;durP1;ratioP1;P1;durP2;ratioP2;P2;SDS_P1;SDS_P2;PMS_P1;PMS_P2;Temp;Humidity;BMP_temperature;BMP_pressure;BME280_temperature;BME280_humidity;BME280_pressure;Samples;Min_cycle;Max_cycle;Signal;HPM_P1;HPM_P2
2021/07/27 00:00:37;;;;;;;1999.90;999.90;;;;;;;24.04;79.13;97865.16;5052495;28;20445;-66
2021/07/27 00:03:04;;;;;;;1999.90;999.90;;;;;;;23.90;79.46;97875.47;5052180;28;20149;-66
2021/07/27 00:05:32;;;;;;;1999.90;999.90;;;;;;;23.48;81.99;97888.94;5053553;28;20056;-65
2021/07/27 00:08:02;;;;;;;1999.90;999.90;;;;;;;23.12;83.83;97885.78;5053588;28;20131;-66
2021/07/27 00:10:30;;;;;;;1999.90;999.90;;;;;;;23.03;86.31;97897.56;5052529;28;20409;-68
2021/07/27 00:12:56;;;;;;;1999.90;999.90;;;;;;;22.86;88.25;97911.41;5052618;28;20041;-68
2021/07/27 00:15:23;;;;;;;1999.90;999.90;;;;;;;22.63;90.81;97920.50;5053653;28;20053;-69
2021/07/27 00:17:53;;;;;;;1999.90;999.90;;;;;;;22.73;90.92;97898.28;5052043;28;20107;-69
2021/07/27 00:20:20;;;;;;;1999.90;999.90;;;;;;;22.56;92.79;97874.72;5051436;28;20545;-70
2021/07/27 00:22:47;;;;;;;1999.90;999.90;;;;;;;21.97;95.15;97862.31;5051889;28;20331;-69
2021/07/27 00:25:15;;;;;;;1999.90;999.90;;;;;;;21.45;99.18;97851.78;5051837;28;20395;-69
2021/07/27 00:27:42;;;;;;;1999.90;999.90;;;;;;;21.83;98.17;97857.59;5052008;28;20144;-69
2021/07/27 00:30:10;;;;;;;1999.90;999.90;;;;;;;22.58;93.54;97866.63;5052750;28;20053;-69
2021/07/27 00:32:41;;;;;;;1999.90;999.90;;;;;;;22.63;92.81;97869.00;5053003;28;20056;-70
2021/07/27 00:35:10;;;;;;;1999.90;999.90;;;;;;;22.56;93.42;97864.22;5051302;28;20077;-69
2021/07/27 00:37:42;;;;;;;1999.90;999.90;;;;;;;22.69;92.99;97861.69;5052715;28;20389;-69
2021/07/27 00:40:12;;;;;;;1999.90;999.90;;;;;;;22.67;92.31;97850.03;5052855;28;20132;-69
2021/07/27 00:42:46;;;;;;;1999.90;999.90;;;;;;;22.86;90.67;97840.94;5052017;28;20099;-69
2021/07/27 00:45:14;;;;;;;1999.90;999.90;;;;;;;22.75;91.52;97837.47;5051797;28;20110;-70
2021/07/27 00:47:41;;;;;;;1999.90;999.90;;;;;;;22.65;91.52;97827.91;5052677;28;20105;-69
2021/07/27 00:50:10;;;;;;;1999.90;999.90;;;;;;;22.32;92.75;97837.94;5052612;28;20048;-68
2021/07/27 00:52:38;;;;;;;1999.90;999.90;;;;;;;22.32;93.43;97841.53;5051412;28;20426;-69
2021/07/27 00:55:05;;;;;;;1999.90;999.90;;;;;;;22.37;92.95;97843.09;5051706;28;20099;-69
2021/07/27 00:57:32;;;;;;;1999.90;999.90;;;;;;;22.56;92.02;97866.25;5051848;28;20105;-69
2021/07/27 00:59:59;;;;;;;1999.90;999.90;;;;;;;22.60;91.28;97887.53;5051185;28;20061;-69
2021/07/27 01:02:26;;;;;;;1999.90;999.90;;;;;;;22.75;90.49;97907.13;5051366;28;20438;-69
2021/07/27 01:04:53;;;;;;;1999.90;999.90;;;;;;;22.57;92.42;97949.53;5052369;28;20435;-68
2021/07/27 01:07:21;;;;;;;1999.90;999.90;;;;;;;22.37;93.58;97978.28;5052446;28;20053;-67
2021/07/27 01:09:49;;;;;;;1999.90;999.90;;;;;;;21.84;96.05;97965.31;5045147;28;20103;-68
2021/07/27 01:12:15;;;;;;;1999.90;999.90;;;;;;;22.00;95.98;97940.28;5051944;28;20095;-70
2021/07/27 01:14:42;;;;;;;1999.90;999.90;;;;;;;22.52;93.27;97931.06;5052417;28;20045;-70
2021/07/27 01:17:09;;;;;;;1999.90;999.90;;;;;;;22.68;92.45;97910.81;5051171;28;20086;-70
2021/07/27 01:20:04;;;;;;;1999.90;999.90;;;;;;;22.30;94.44;97897.44;5056730;28;20045;-70
2021/07/27 01:39:27;;;;;;;1999.90;999.90;;;;;;;21.83;99.24;97856.81;5058237;28;20052;-69
2021/07/27 01:44:50;;;;;;;1999.90;999.90;;;;;;;22.39;95.09;97866.03;5055659;28;20098;-69
2021/07/27 01:47:17;;;;;;;1999.90;999.90;;;;;;;22.68;93.62;97877.78;5058230;28;20052;-69
2021/07/27 01:49:45;;;;;;;1999.90;999.90;;;;;;;22.56;94.00;97886.78;5058634;28;20053;-68
2021/07/27 01:52:16;;;;;;;1999.90;999.90;;;;;;;22.25;95.94;97885.81;5057717;28;20040;-69
2021/07/27 01:54:50;;;;;;;1999.90;999.90;;;;;;;22.00;97.13;97884.00;5058019;28;20057;-68
2021/07/27 01:57:18;;;;;;;1999.90;999.90;;;;;;;21.94;98.47;97877.22;5058560;28;20436;-66
2021/07/27 01:59:51;;;;;;;1999.90;999.90;;;;;;;22.24;96.41;97870.94;5058052;28;20065;-66
2021/07/27 02:02:18;;;;;;;1999.90;999.90;;;;;;;22.51;94.36;97868.31;5057456;28;20098;-66
2021/07/27 02:04:45;;;;;;;1999.90;999.90;;;;;;;22.44;94.81;97896.53;5058796;28;20072;-66
2021/07/27 02:07:12;;;;;;;1999.90;999.90;;;;;;;22.58;94.14;97900.44;5058598;28;20071;-66
2021/07/27 02:09:42;;;;;;;1999.90;999.90;;;;;;;22.54;94.21;97894.03;5057575;28;20053;-66
2021/07/27 02:12:17;;;;;;;1999.90;999.90;;;;;;;22.70;94.22;97874.53;5057611;28;20040;-66
2021/07/27 02:17:30;;;;;;;1999.90;999.90;;;;;;;22.76;92.69;97861.63;5057302;28;20433;-66
2021/07/27 02:20:02;;;;;;;1999.90;999.90;;;;;;;22.71;93.33;97842.34;5056848;28;20382;-66
2021/07/27 02:22:38;;;;;;;1999.90;999.90;;;;;;;22.86;91.99;97843.75;5057884;28;20106;-66
2021/07/27 02:25:06;;;;;;;1999.90;999.90;;;;;;;22.98;91.03;97850.06;5057923;28;20049;-66
2021/07/27 02:27:35;;;;;;;1999.90;999.90;;;;;;;22.94;91.05;97852.13;5057505;28;20071;-66
2021/07/27 02:30:06;;;;;;;1999.90;999.90;;;;;;;23.02;90.74;97853.66;5055186;28;20037;-66
2021/07/27 02:32:34;;;;;;;1999.90;999.90;;;;;;;22.95;91.05;97865.03;5055213;28;20037;-66
2021/07/27 02:35:01;;;;;;;1999.90;999.90;;;;;;;22.93;90.50;97864.66;5054993;28;20126;-66
2021/07/27 02:37:30;;;;;;;1999.90;999.90;;;;;;;22.65;91.33;97872.19;5054112;28;20045;-67
2021/07/27 02:39:56;;;;;;;1999.90;999.90;;;;;;;22.41;93.23;97890.94;5054344;28;20049;-67
2021/07/27 02:42:23;;;;;;;1999.90;999.90;;;;;;;22.56;92.81;97891.63;5055642;28;20049;-67
2021/07/27 02:44:50;;;;;;;1999.90;999.90;;;;;;;22.67;91.84;97895.94;5054050;28;20049;-67
2021/07/27 02:47:17;;;;;;;1999.90;999.90;;;;;;;22.56;92.07;97900.84;5054142;28;20113;-67
2021/07/27 02:49:44;;;;;;;1999.90;999.90;;;;;;;22.76;91.28;97901.06;5055039;28;20442;-67
2021/07/27 02:52:10;;;;;;;1999.90;999.90;;;;;;;22.71;91.53;97904.31;5054152;28;20049;-67
2021/07/27 02:54:37;;;;;;;1999.90;999.90;;;;;;;22.61;92.16;97905.22;5053846;28;20053;-67
2021/07/27 02:57:04;;;;;;;1999.90;999.90;;;;;;;22.40;92.84;97915.47;5054687;28;20044;-67
2021/07/27 02:59:31;;;;;;;1999.90;999.90;;;;;;;21.88;95.42;97919.06;5053882;28;20057;-67
2021/07/27 03:01:58;;;;;;;1999.90;999.90;;;;;;;21.54;98.48;97924.50;5053495;28;20107;-67
2021/07/27 03:04:24;;;;;;;1999.90;999.90;;;;;;;21.57;98.75;97923.66;5053803;28;20053;-67
2021/07/27 03:06:52;;;;;;;1999.90;999.90;;;;;;;21.81;97.55;97917.13;5054890;28;20045;-67
2021/07/27 03:09:24;;;;;;;1999.90;999.90;;;;;;;22.04;96.47;97918.56;5053700;28;20438;-67
2021/07/27 03:11:51;;;;;;;1999.90;999.90;;;;;;;21.91;97.18;97921.06;5053776;28;20040;-67
2021/07/27 03:14:19;;;;;;;1999.90;999.90;;;;;;;21.87;97.45;97937.19;5053438;28;20057;-67
2021/07/27 03:16:45;;;;;;;1999.90;999.90;;;;;;;21.62;98.74;97938.13;5053182;28;20052;-67
2021/07/27 03:19:12;;;;;;;1999.90;999.90;;;;;;;21.65;99.15;97942.13;5053044;28;20048;-67
2021/07/27 03:21:39;;;;;;;1999.90;999.90;;;;;;;21.64;99.42;97946.16;5053535;28;20397;-67
2021/07/27 03:24:06;;;;;;;1999.90;999.90;;;;;;;21.73;99.02;97949.31;5054008;28;20052;-67
2021/07/27 03:26:32;;;;;;;1999.90;999.90;;;;;;;21.09;100.00;97950.34;5052149;28;20041;-67
2021/07/27 03:28:59;;;;;;;1999.90;999.90;;;;;;;21.42;100.00;97951.84;5053508;28;20103;-67
2021/07/27 03:31:29;;;;;;;1999.90;999.90;;;;;;;21.46;100.00;97954.63;5054589;28;20102;-67
2021/07/27 03:33:56;;;;;;;1999.90;999.90;;;;;;;21.10;100.00;97964.00;5053083;28;20076;-67
2021/07/27 03:36:23;;;;;;;1999.90;999.90;;;;;;;20.79;100.00;97978.94;5053093;28;20041;-67
2021/07/27 03:38:51;;;;;;;1999.90;999.90;;;;;;;20.65;100.00;97976.88;5053979;28;20049;-67
2021/07/27 03:41:18;;;;;;;1999.90;999.90;;;;;;;20.33;100.00;97986.91;5053414;28;20075;-67
2021/07/27 03:43:44;;;;;;;1999.90;999.90;;;;;;;20.17;100.00;97992.13;5052285;28;20056;-67
2021/07/27 03:46:11;;;;;;;1999.90;999.90;;;;;;;20.45;100.00;97993.34;5054678;28;20037;-68
2021/07/27 03:48:38;;;;;;;1999.90;999.90;;;;;;;21.00;100.00;97992.94;5053384;28;20045;-68
2021/07/27 03:51:04;;;;;;;1999.90;999.90;;;;;;;21.14;100.00;97996.91;5052748;28;20103;-69
2021/07/27 03:53:31;;;;;;;1999.90;999.90;;;;;;;21.07;100.00;97992.91;5053178;28;20083;-69
2021/07/27 03:55:58;;;;;;;1999.90;999.90;;;;;;;21.40;99.29;97988.00;5053715;28;20107;-69
2021/07/27 03:58:24;;;;;;;1999.90;999.90;;;;;;;21.29;97.59;97981.63;5052484;28;20130;-68
2021/07/27 04:00:51;;;;;;;1999.90;999.90;;;;;;;21.28;97.96;97992.06;5052732;28;20053;-69
2021/07/27 04:03:18;;;;;;;1999.90;999.90;;;;;;;21.60;96.36;97985.56;5053451;28;20048;-68
2021/07/27 04:05:45;;;;;;;1999.90;999.90;;;;;;;21.88;95.58;97977.38;5052132;28;20440;-69
2021/07/27 04:08:14;;;;;;;1999.90;999.90;;;;;;;22.08;94.46;97974.84;5052454;28;20044;-66
2021/07/27 04:10:41;;;;;;;1999.90;999.90;;;;;;;22.21;92.99;97984.41;5053023;28;20045;-66
2021/07/27 04:13:08;;;;;;;1999.90;999.90;;;;;;;22.37;91.72;97977.47;5052932;28;20076;-67
2021/07/27 04:15:34;;;;;;;1999.90;999.90;;;;;;;22.40;90.70;97980.25;5052611;28;20270;-67
2021/07/27 04:18:01;;;;;;;1999.90;999.90;;;;;;;22.29;91.75;97985.16;5052496;28;20127;-67
2021/07/27 04:20:27;;;;;;;1999.90;999.90;;;;;;;22.29;92.12;97993.59;5052936;28;20052;-67
2021/07/27 04:22:54;;;;;;;1999.90;999.90;;;;;;;22.39;91.46;97994.75;5051974;28;20053;-67
2021/07/27 04:25:21;;;;;;;1999.90;999.90;;;;;;;22.28;91.94;97994.81;5052396;28;20316;-67
2021/07/27 04:27:47;;;;;;;1999.90;999.90;;;;;;;21.70;94.78;97989.50;5053067;28;20049;-67
2021/07/27 04:30:14;;;;;;;1999.90;999.90;;;;;;;22.11;93.67;97985.28;5052582;28;20424;-67
2021/07/27 04:32:42;;;;;;;1999.90;999.90;;;;;;;22.30;93.39;97983.91;5051863;28;20115;-67
2021/07/27 04:35:09;;;;;;;1999.90;999.90;;;;;;;22.68;93.60;97984.06;5052874;28;20049;-67
2021/07/27 04:37:36;;;;;;;1999.90;999.90;;;;;;;22.95;91.92;97992.66;5053170;28;20044;-67
2021/07/27 04:40:03;;;;;;;1999.90;999.90;;;;;;;22.90;93.11;97984.66;5051607;28;20389;-68
2021/07/27 04:42:30;;;;;;;1999.90;999.90;;;;;;;23.40;90.34;97988.97;5051906;28;20045;-68
2021/07/27 04:44:56;;;;;;;1999.90;999.90;;;;;;;23.71;88.72;97983.38;5053396;28;20049;-68
2021/07/27 04:47:23;;;;;;;1999.90;999.90;;;;;;;23.75;87.09;97986.94;5051819;28;20098;-68
2021/07/27 04:49:50;;;;;;;1999.90;999.90;;;;;;;23.82;85.94;97984.03;5052142;28;20048;-68
2021/07/27 04:52:20;;;;;;;1999.90;999.90;;;;;;;22.53;91.71;97988.22;5052566;28;20053;-68
2021/07/27 04:54:55;;;;;;;1999.90;999.90;;;;;;;22.73;92.41;97975.16;5050742;28;20061;-68
2021/07/27 04:57:21;;;;;;;1999.90;999.90;;;;;;;22.94;90.92;97973.34;5051193;28;20045;-68
2021/07/27 04:59:49;;;;;;;1999.90;999.90;;;;;;;22.82;90.66;97975.47;5052106;28;20052;-68
2021/07/27 05:02:16;;;;;;;1999.90;999.90;;;;;;;22.80;90.15;97975.09;5052413;28;20057;-68
2021/07/27 05:04:46;;;;;;;1999.90;999.90;;;;;;;22.77;91.35;97966.69;5051300;28;20442;-67
2021/07/27 05:07:13;;;;;;;1999.90;999.90;;;;;;;22.59;91.93;97970.44;5052052;28;20045;-68
2021/07/27 05:09:40;;;;;;;1999.90;999.90;;;;;;;22.32;92.58;97973.88;5052254;28;20049;-68
2021/07/27 05:12:07;;;;;;;1999.90;999.90;;;;;;;22.31;92.91;97966.66;5051839;28;20057;-68
2021/07/27 05:14:34;;;;;;;1999.90;999.90;;;;;;;21.88;96.19;97957.66;5051291;28;20049;-70
2021/07/27 05:17:08;;;;;;;1999.90;999.90;;;;;;;22.17;95.40;97961.91;5052336;28;20095;-69
2021/07/27 05:19:36;;;;;;;1999.90;999.90;;;;;;;22.72;92.53;97972.75;5051927;28;20048;-69
2021/07/27 05:22:03;;;;;;;1999.90;999.90;;;;;;;23.06;90.78;97972.00;5050709;28;20069;-69
2021/07/27 05:24:29;;;;;;;1999.90;999.90;;;;;;;23.35;89.46;97987.44;5051526;28;20103;-69
2021/07/27 05:26:56;;;;;;;1999.90;999.90;;;;;;;23.41;89.31;97984.94;5052470;28;20041;-69
2021/07/27 05:29:23;;;;;;;1999.90;999.90;;;;;;;23.59;88.97;97987.56;5051232;28;20045;-69
2021/07/27 05:31:49;;;;;;;1999.90;999.90;;;;;;;23.68;88.48;97981.41;5051416;28;20048;-69
2021/07/27 05:34:16;;;;;;;1999.90;999.90;;;;;;;23.89;87.89;97998.09;5051918;28;20053;-69
2021/07/27 05:36:43;;;;;;;1999.90;999.90;;;;;;;24.04;87.02;97989.41;5051605;28;20053;-69
2021/07/27 05:39:10;;;;;;;1999.90;999.90;;;;;;;23.81;86.39;97996.53;5050924;28;20119;-69
2021/07/27 05:41:37;;;;;;;1999.90;999.90;;;;;;;23.97;87.59;97997.97;5052467;28;20346;-69
2021/07/27 05:44:04;;;;;;;1999.90;999.90;;;;;;;24.06;86.87;98007.53;5051823;28;20122;-69
2021/07/27 05:46:31;;;;;;;1999.90;999.90;;;;;;;24.05;86.99;98017.22;5051183;28;20041;-69
2021/07/27 05:48:58;;;;;;;1999.90;999.90;;;;;;;24.21;86.73;98025.06;5051594;28;20044;-69
2021/07/27 05:51:26;;;;;;;1999.90;999.90;;;;;;;24.11;86.49;98030.88;5051856;28;20080;-68
2021/07/27 05:53:53;;;;;;;1999.90;999.90;;;;;;;24.20;86.52;98023.47;5050853;28;20107;-68
2021/07/27 05:56:19;;;;;;;1999.90;999.90;;;;;;;24.19;86.36;98024.72;5051161;28;20418;-70
2021/07/27 05:58:47;;;;;;;1999.90;999.90;;;;;;;24.25;86.25;98031.47;5052306;28;20393;-69
2021/07/27 06:01:13;;;;;;;1999.90;999.90;;;;;;;24.31;86.84;98040.28;5051115;28;20076;-69
2021/07/27 06:03:40;;;;;;;1999.90;999.90;;;;;;;24.30;86.36;98035.06;5050741;28;20053;-69
2021/07/27 06:06:07;;;;;;;1999.90;999.90;;;;;;;24.53;85.83;98045.59;5055038;28;20095;-69
2021/07/27 06:08:33;;;;;;;1999.90;999.90;;;;;;;24.57;86.09;98049.94;5055567;28;20049;-69
2021/07/27 06:11:03;;;;;;;1999.90;999.90;;;;;;;24.57;86.43;98058.44;5053468;28;20449;-68
2021/07/27 06:13:30;;;;;;;1999.90;999.90;;;;;;;24.60;85.67;98046.28;5054584;28;20423;-69
2021/07/27 06:16:02;;;;;;;1999.90;999.90;;;;;;;24.80;84.71;98056.88;5055542;28;20045;-68
2021/07/27 06:18:29;;;;;;;1999.90;999.90;;;;;;;24.78;84.68;98054.47;5054544;28;20107;-69
2021/07/27 06:20:55;;;;;;;1999.90;999.90;;;;;;;24.94;84.07;98050.22;5053631;28;20106;-69
2021/07/27 06:23:22;;;;;;;1999.90;999.90;;;;;;;24.87;83.78;98047.50;5055216;28;20049;-69
2021/07/27 06:25:49;;;;;;;1999.90;999.90;;;;;;;25.05;82.48;98058.50;5055069;28;20098;-69
2021/07/27 06:28:15;;;;;;;1999.90;999.90;;;;;;;24.76;83.53;98071.09;5054137;28;20084;-69
2021/07/27 06:30:42;;;;;;;1999.90;999.90;;;;;;;24.37;85.75;98071.66;5053388;28;20127;-69
2021/07/27 06:33:08;;;;;;;1999.90;999.90;;;;;;;23.69;88.49;98073.31;5055276;28;20053;-69
2021/07/27 06:35:35;;;;;;;1999.90;999.90;;;;;;;23.31;90.13;98073.31;5054185;28;20052;-69
2021/07/27 06:38:02;;;;;;;1999.90;999.90;;;;;;;23.31;92.89;98081.78;5054351;28;20044;-69
2021/07/27 06:40:29;;;;;;;1999.90;999.90;;;;;;;23.95;90.65;98085.13;5055751;28;20103;-69
2021/07/27 06:42:56;;;;;;;1999.90;999.90;;;;;;;24.11;88.54;98076.84;5053785;28;20099;-70
2021/07/27 06:45:23;;;;;;;1999.90;999.90;;;;;;;24.03;87.71;98081.00;5054037;28;20052;-70
2021/07/27 06:47:49;;;;;;;1999.90;999.90;;;;;;;24.30;86.74;98074.59;5054258;28;20392;-69
2021/07/27 06:50:16;;;;;;;1999.90;999.90;;;;;;;24.25;85.15;98076.66;5053534;28;20188;-67
2021/07/27 06:52:43;;;;;;;1999.90;999.90;;;;;;;24.47;83.74;98081.19;5047398;28;20053;-69
2021/07/27 06:55:10;;;;;;;1999.90;999.90;;;;;;;24.36;83.41;98087.00;5053504;28;20099;-69
2021/07/27 06:57:36;;;;;;;1999.90;999.90;;;;;;;24.42;83.44;98082.47;5054257;28;20048;-68
2021/07/27 07:00:04;;;;;;;1999.90;999.90;;;;;;;25.01;81.45;98089.69;5053439;28;20057;-68
2021/07/27 07:02:31;;;;;;;1999.90;999.90;;;;;;;25.34;81.19;98081.47;5053954;28;20186;-68
2021/07/27 07:04:58;;;;;;;1999.90;999.90;;;;;;;25.69;81.45;98076.34;5054633;28;20053;-68
2021/07/27 07:07:24;;;;;;;1999.90;999.90;;;;;;;25.60;79.95;98088.22;5053368;28;20102;-68
2021/07/27 07:09:51;;;;;;;1999.90;999.90;;;;;;;25.83;77.72;98089.44;5053649;28;20377;-68
2021/07/27 07:12:18;;;;;;;1999.90;999.90;;;;;;;25.12;77.49;98081.81;5054701;28;20103;-69
2021/07/27 07:14:45;;;;;;;1999.90;999.90;;;;;;;25.67;78.88;98098.63;5054076;28;20106;-68
2021/07/27 07:17:12;;;;;;;1999.90;999.90;;;;;;;25.80;79.77;98096.75;5050891;28;20041;-68
2021/07/27 07:19:39;;;;;;;1999.90;999.90;;;;;;;25.76;77.86;98090.34;5054523;28;20041;-68
2021/07/27 07:22:05;;;;;;;1999.90;999.90;;;;;;;25.38;79.96;98102.00;5055543;28;20049;-68
2021/07/27 07:24:32;;;;;;;1999.90;999.90;;;;;;;25.84;79.15;98103.16;5057458;28;20041;-68
2021/07/27 07:26:59;;;;;;;1999.90;999.90;;;;;;;26.31;76.61;98096.53;5053234;28;20037;-68
2021/07/27 07:29:26;;;;;;;1999.90;999.90;;;;;;;26.53;76.35;98107.41;5053575;28;20061;-68
2021/07/27 07:31:52;;;;;;;1999.90;999.90;;;;;;;25.87;76.94;98101.47;5053098;28;20045;-68
2021/07/27 07:34:19;;;;;;;1999.90;999.90;;;;;;;25.83;78.04;98095.88;5053385;28;20041;-67
2021/07/27 07:36:45;;;;;;;1999.90;999.90;;;;;;;26.11;77.62;98101.41;5053861;28;20503;-67
2021/07/27 07:39:12;;;;;;;1999.90;999.90;;;;;;;26.48;75.81;98105.88;5053221;28;20488;-67
2021/07/27 07:41:39;;;;;;;1999.90;999.90;;;;;;;26.40;76.86;98097.97;5052833;28;20045;-67
2021/07/27 07:44:05;;;;;;;1999.90;999.90;;;;;;;26.46;74.55;98101.91;5053737;28;20110;-67
2021/07/27 07:46:32;;;;;;;1999.90;999.90;;;;;;;26.55;75.11;98107.75;5054064;28;20072;-67
2021/07/27 07:48:59;;;;;;;1999.90;999.90;;;;;;;26.78;74.02;98108.88;5052784;28;20045;-66
2021/07/27 07:51:26;;;;;;;1999.90;999.90;;;;;;;26.92;73.10;98108.53;5052561;28;20099;-66
2021/07/27 07:53:52;;;;;;;1999.90;999.90;;;;;;;27.20;72.24;98109.09;5053646;28;20048;-66
2021/07/27 07:56:19;;;;;;;1999.90;999.90;;;;;;;27.12;71.88;98113.31;5052390;28;20315;-67
2021/07/27 07:58:47;;;;;;;1999.90;999.90;;;;;;;27.21;71.68;98122.81;5052984;28;20061;-67
2021/07/27 08:01:14;;;;;;;1999.90;999.90;;;;;;;27.89;69.63;98130.81;5053201;28;20331;-66
2021/07/27 08:03:40;;;;;;;1999.90;999.90;;;;;;;28.30;67.56;98134.94;5052632;28;20450;-67
2021/07/27 08:06:08;;;;;;;1999.90;999.90;;;;;;;26.67;68.11;98135.44;5052533;28;20090;-67
2021/07/27 08:08:39;;;;;;;1999.90;999.90;;;;;;;26.65;70.44;98137.09;5053344;28;20106;-67
2021/07/27 08:11:10;;;;;;;1999.90;999.90;;;;;;;26.52;70.79;98139.81;5053413;28;20088;-67
2021/07/27 08:13:36;;;;;;;1999.90;999.90;;;;;;;27.18;69.90;98145.59;5052301;28;20320;-67
2021/07/27 08:16:08;;;;;;;1999.90;999.90;;;;;;;27.76;70.61;98142.91;5052848;28;20053;-67
2021/07/27 08:18:35;;;;;;;1999.90;999.90;;;;;;;28.45;66.97;98156.00;5052755;28;20512;-67
2021/07/27 08:21:02;;;;;;;1999.90;999.90;;;;;;;28.91;64.48;98149.34;5051112;28;20103;-66
2021/07/27 08:23:29;;;;;;;1999.90;999.90;;;;;;;29.31;63.65;98146.84;5052468;28;20099;-66
2021/07/27 08:25:56;;;;;;;1999.90;999.90;;;;;;;29.63;61.52;98147.78;5052731;28;20415;-66
2021/07/27 08:28:23;;;;;;;1999.90;999.90;;;;;;;29.90;59.40;98142.84;5051881;28;20076;-66
2021/07/27 08:30:49;;;;;;;1999.90;999.90;;;;;;;28.98;62.21;98141.41;5052071;28;20073;-66
2021/07/27 08:33:16;;;;;;;1999.90;999.90;;;;;;;29.06;64.08;98144.81;5052154;28;20331;-66
2021/07/27 08:35:43;;;;;;;1999.90;999.90;;;;;;;29.53;63.15;98151.81;5053387;28;20071;-66
2021/07/27 08:38:09;;;;;;;1999.90;999.90;;;;;;;29.87;60.21;98152.31;5051535;28;20072;-66
2021/07/27 08:40:39;;;;;;;1999.90;999.90;;;;;;;30.02;59.37;98153.38;5052322;28;20470;-66
2021/07/27 08:43:07;;;;;;;1999.90;999.90;;;;;;;30.04;60.19;98159.41;5052004;28;20057;-65
2021/07/27 08:45:34;;;;;;;1999.90;999.90;;;;;;;29.90;58.96;98159.94;5052487;28;20045;-65
2021/07/27 08:48:20;;;;;;;1999.90;999.90;;;;;;;30.25;56.64;98157.84;5051217;28;20051;-65
2021/07/27 08:50:46;;;;;;;1999.90;999.90;;;;;;;29.23;60.44;98164.63;5052538;28;20110;-65
2021/07/27 08:53:13;;;;;;;1999.90;999.90;;;;;;;29.87;56.79;98158.00;5052882;28;20052;-65
2021/07/27 08:55:40;;;;;;;1999.90;999.90;;;;;;;30.35;57.64;98165.16;5051482;28;20091;-65
2021/07/27 08:58:07;;;;;;;1999.90;999.90;;;;;;;28.26;61.44;98165.50;5052221;28;20107;-66
2021/07/27 09:00:34;;;;;;;1999.90;999.90;;;;;;;27.86;62.79;98171.47;5052050;28;20110;-66
2021/07/27 09:03:08;;;;;;;1999.90;999.90;;;;;;;28.78;61.98;98155.84;5050969;28;20084;-66
2021/07/27 09:05:35;;;;;;;1999.90;999.90;;;;;;;30.01;60.79;98171.72;5049528;28;20080;-66
2021/07/27 09:08:08;;;;;;;1999.90;999.90;;;;;;;30.92;56.17;98169.94;5052217;28;20450;-66
2021/07/27 09:10:36;;;;;;;1999.90;999.90;;;;;;;30.62;58.41;98175.19;5052002;28;20056;-66
2021/07/27 09:13:07;;;;;;;1999.90;999.90;;;;;;;31.20;56.11;98182.31;5050890;28;20500;-66
2021/07/27 09:15:40;;;;;;;1999.90;999.90;;;;;;;32.06;52.48;98180.75;5049093;28;20053;-66
2021/07/27 09:18:06;;;;;;;1999.90;999.90;;;;;;;30.34;53.13;98179.91;5051599;28;20126;-66
2021/07/27 09:20:43;;;;;;;1999.90;999.90;;;;;;;30.71;53.81;98174.44;5050405;28;20106;-66
2021/07/27 09:23:17;;;;;;;1999.90;999.90;;;;;;;31.50;53.29;98177.03;5050527;28;20048;-66
2021/07/27 09:25:49;;;;;;;1999.90;999.90;;;;;;;31.73;54.04;98180.56;5051576;28;20162;-66
2021/07/27 09:28:17;;;;;;;1999.90;999.90;;;;;;;31.67;53.51;98180.41;5051742;28;20040;-66
2021/07/27 09:30:45;;;;;;;1999.90;999.90;;;;;;;31.22;54.61;98184.72;5048270;28;20276;-66
2021/07/27 09:33:15;;;;;;;1999.90;999.90;;;;;;;30.83;53.18;98195.59;5050746;28;20492;-67
2021/07/27 09:35:43;;;;;;;1999.90;999.90;;;;;;;30.58;54.47;98196.56;5052034;28;20118;-66
2021/07/27 09:38:12;;;;;;;1999.90;999.90;;;;;;;31.04;54.63;98179.69;5051008;28;20051;-66
2021/07/27 09:40:58;;;;;;;1999.90;999.90;;;;;;;31.27;53.09;98186.16;5053857;28;20040;-66
2021/07/27 09:43:45;;;;;;;1999.90;999.90;;;;;;;29.17;56.50;98182.25;5044417;28;20053;-66
2021/07/27 09:46:12;;;;;;;1999.90;999.90;;;;;;;28.96;56.60;98178.03;5055783;28;20044;-66
2021/07/27 09:48:42;;;;;;;1999.90;999.90;;;;;;;29.94;56.09;98187.03;5055332;28;20071;-66
2021/07/27 09:51:10;;;;;;;1999.90;999.90;;;;;;;30.79;54.99;98194.94;5055017;28;20082;-66
2021/07/27 09:53:39;;;;;;;1999.90;999.90;;;;;;;31.20;55.35;98187.22;5055785;28;20049;-66
2021/07/27 09:56:08;;;;;;;1999.90;999.90;;;;;;;31.20;54.57;98190.09;5055917;28;20392;-66
2021/07/27 09:58:35;;;;;;;1999.90;999.90;;;;;;;30.64;53.21;98192.66;5054932;28;20454;-66
2021/07/27 10:01:12;;;;;;;1999.90;999.90;;;;;;;30.24;55.17;98181.13;5054690;28;20057;-65
2021/07/27 10:03:57;;;;;;;1999.90;999.90;;;;;;;30.13;55.05;98182.31;5055751;28;20128;-66
2021/07/27 10:06:27;;;;;;;1999.90;999.90;;;;;;;30.86;55.44;98175.50;5054894;28;20414;-66
2021/07/27 10:08:58;;;;;;;1999.90;999.90;;;;;;;31.62;53.49;98168.81;5054558;28;20057;-66
2021/07/27 10:11:38;;;;;;;1999.90;999.90;;;;;;;30.93;53.24;98171.56;5055039;28;20048;-67
2021/07/27 10:14:09;;;;;;;1999.90;999.90;;;;;;;31.76;52.38;98171.06;5054769;28;20138;-67
2021/07/27 10:16:37;;;;;;;1999.90;999.90;;;;;;;31.21;51.80;98168.84;5054828;28;20057;-67
2021/07/27 10:19:36;;;;;;;1999.90;999.90;;;;;;;30.07;55.13;98172.72;5054263;28;20049;-65
2021/07/27 10:22:06;;;;;;;1999.90;999.90;;;;;;;30.13;54.28;98173.75;5053570;28;20044;-65
2021/07/27 10:24:37;;;;;;;1999.90;999.90;;;;;;;29.82;56.10;98171.59;5055529;28;20397;-65
2021/07/27 10:27:16;;;;;;;1999.90;999.90;;;;;;;30.33;54.13;98178.31;5054403;28;20045;-65
2021/07/27 10:29:43;;;;;;;1999.90;999.90;;;;;;;31.42;51.92;98178.56;5047033;28;20051;-65
2021/07/27 10:32:11;;;;;;;1999.90;999.90;;;;;;;30.96;51.33;98181.25;5055090;28;20098;-66
2021/07/27 10:34:41;;;;;;;1999.90;999.90;;;;;;;30.89;51.34;98180.25;5054694;28;20111;-66
2021/07/27 10:37:12;;;;;;;1999.90;999.90;;;;;;;31.81;49.94;98173.25;5054157;28;20091;-66
2021/07/27 10:39:48;;;;;;;;;;;;;;;31.98;48.90;98167.22;5055106;28;20041;-66
2021/07/27 10:42:17;;;;;;;1999.90;999.90;;;;;;;31.88;50.34;98164.38;5054481;28;19927;-66
2021/07/27 10:44:44;;;;;;;1999.90;999.90;;;;;;;31.71;49.95;98160.22;5054445;28;20422;-66
2021/07/27 10:47:21;;;;;;;1999.90;999.90;;;;;;;32.21;48.33;98165.84;5053744;28;20384;-66
2021/07/27 10:50:05;;;;;;;1999.90;999.90;;;;;;;31.39;50.19;98165.25;5054731;28;20128;-66
2021/07/27 10:52:32;;;;;;;1999.90;999.90;;;;;;;31.35;51.86;98164.59;5041476;28;20099;-66
2021/07/27 10:55:00;;;;;;;1999.90;999.90;;;;;;;31.41;49.64;98174.94;5053753;28;20056;-66
2021/07/27 10:57:35;;;;;;;1999.90;999.90;;;;;;;31.24;51.25;98173.59;5053678;28;20434;-66
2021/07/27 11:00:06;;;;;;;1999.90;999.90;;;;;;;31.63;49.27;98184.69;5043932;28;20061;-66
2021/07/27 11:02:33;;;;;;;1999.90;999.90;;;;;;;31.40;50.73;98178.25;5053687;28;20094;-66
2021/07/27 11:05:00;;;;;;;1999.90;999.90;;;;;;;31.26;50.90;98171.06;5053434;28;20089;-66
2021/07/27 11:07:33;;;;;;;1999.90;999.90;;;;;;;30.99;51.90;98166.06;5054455;28;20052;-66
2021/07/27 11:10:01;;;;;;;1999.90;999.90;;;;;;;32.14;50.97;98169.81;5054591;28;20140;-66
2021/07/27 11:12:38;;;;;;;1999.90;999.90;;;;;;;31.70;48.95;98167.22;5053432;28;20052;-66
2021/07/27 11:15:08;;;;;;;1999.90;999.90;;;;;;;31.66;48.42;98160.88;5053502;28;20052;-65
2021/07/27 11:17:37;;;;;;;1999.90;999.90;;;;;;;31.52;50.29;98159.41;5054319;28;20377;-65
2021/07/27 11:20:06;;;;;;;1999.90;999.90;;;;;;;32.94;48.32;98164.88;5052198;28;20091;-65
2021/07/27 11:22:33;;;;;;;1999.90;999.90;;;;;;;33.45;48.38;98168.16;5053237;28;20053;-65